Time;durP1;ratioP1;P1;durP2;ratioP2;P2;SDS_P1;SDS_P2;PMS_P1;PMS_P2;Temp;Humidity;BMP_temperature;BMP_pressure;BME280_temperature;BME280_humidity;BME280_pressure;Samples;Min_cycle;Max_cycle;Signal;HPM_P1;HPM_P2
2023/03/28 00:00:09;;;;;;;3.20;2.30;;;6.60;99.90;;;;;;4902867;29;20183;-66
2023/03/28 00:02:35;;;;;;;6.37;3.30;;;6.60;99.90;;;;;;4901294;29;20256;-65
2023/03/28 00:05:01;;;;;;;5.07;2.80;;;6.60;99.90;;;;;;4898497;29;20444;-66
2023/03/28 00:07:28;;;;;;;6.47;2.50;;;6.60;99.90;;;;;;4898762;29;20195;-66
2023/03/28 00:09:55;;;;;;;10.50;2.63;;;6.60;99.90;;;;;;4900813;29;20442;-67
2023/03/28 00:12:20;;;;;;;8.93;2.77;;;6.60;99.90;;;;;;4904228;29;20433;-66
2023/03/28 00:14:46;;;;;;;8.30;2.77;;;6.60;99.90;;;;;;4905786;29;20878;-66
2023/03/28 00:17:12;;;;;;;10.30;2.87;;;6.60;99.90;;;;;;4898415;29;20195;-66
2023/03/28 00:19:39;;;;;;;5.40;3.03;;;6.50;99.90;;;;;;4910592;29;20184;-66
2023/03/28 00:22:05;;;;;;;9.60;3.33;;;6.50;99.90;;;;;;4913308;29;20459;-65
2023/03/28 00:24:33;;;;;;;6.17;3.10;;;6.50;99.90;;;;;;4915505;29;20443;-66
2023/03/28 00:26:59;;;;;;;7.60;3.10;;;6.50;99.90;;;;;;4913784;29;20187;-66
2023/03/28 04:32:20;;;;;;;12.07;5.43;;;4.70;99.90;;;;;;5088898;23;20562;-74
2023/03/28 04:34:48;;;;;;;9.93;5.00;;;4.70;99.90;;;;;;4917373;29;20483;-74
2023/03/28 04:37:14;;;;;;;11.47;5.23;;;4.80;99.90;;;;;;4916721;29;20444;-74
2023/03/28 04:39:43;;;;;;;11.77;5.60;;;4.80;99.90;;;;;;4917039;29;20502;-74
2023/03/28 04:42:09;;;;;;;13.57;5.63;;;4.80;99.90;;;;;;4916820;29;20941;-74
2023/03/28 04:44:34;;;;;;;12.33;6.20;;;4.80;99.90;;;;;;4916799;29;20439;-75
2023/03/28 04:47:00;;;;;;;13.70;6.60;;;4.90;99.90;;;;;;4916679;29;20187;-75
2023/03/28 04:49:26;;;;;;;11.60;5.83;;;4.90;99.90;;;;;;4916677;29;20556;-75
2023/03/28 04:51:52;;;;;;;16.13;6.73;;;4.90;99.90;;;;;;4916532;29;20198;-76
2023/03/28 04:54:18;;;;;;;15.73;7.17;;;4.90;99.90;;;;;;4916419;29;20285;-76
2023/03/28 04:56:46;;;;;;;17.23;6.00;;;4.90;99.90;;;;;;4916662;29;20196;-76
2023/03/28 04:59:12;;;;;;;11.43;6.10;;;4.90;99.90;;;;;;4916541;29;20495;-72
2023/03/28 05:01:38;;;;;;;14.37;5.97;;;4.90;99.90;;;;;;4916706;29;20950;-75
2023/03/28 05:04:04;;;;;;;13.80;6.30;;;5.00;99.90;;;;;;4916596;29;20439;-73
2023/03/28 05:06:29;;;;;;;14.80;8.00;;;5.00;99.90;;;;;;4916883;29;20268;-71
2023/03/28 05:08:55;;;;;;;13.00;5.40;;;5.00;99.90;;;;;;4916393;29;20196;-71
2023/03/28 05:11:20;;;;;;;13.63;6.50;;;5.00;99.90;;;;;;4916413;29;20188;-71
2023/03/28 05:13:46;;;;;;;17.97;5.80;;;4.90;99.90;;;;;;4918947;29;20202;-72
2023/03/28 05:16:11;;;;;;;10.10;5.00;;;4.90;99.90;;;;;;4919882;29;20578;-71
2023/03/28 05:18:37;;;;;;;12.70;5.50;;;4.90;99.90;;;;;;4920125;29;20650;-73
2023/03/28 05:21:03;;;;;;;10.97;6.20;;;5.00;99.90;;;;;;4920067;29;20194;-72
2023/03/28 05:23:28;;;;;;;11.03;7.10;;;5.00;99.90;;;;;;4920109;29;20184;-72
2023/03/28 05:25:54;;;;;;;15.27;7.50;;;4.90;99.90;;;;;;4919990;29;20547;-73
2023/03/28 05:28:20;;;;;;;13.53;6.10;;;4.90;99.90;;;;;;4919502;29;20196;-70
2023/03/28 05:30:46;;;;;;;14.80;6.20;;;4.90;99.90;;;;;;4915959;29;20476;-72
2023/03/28 05:33:12;;;;;;;12.50;6.47;;;4.90;99.90;;;;;;4900718;29;20505;-70
2023/03/28 05:35:38;;;;;;;15.23;5.97;;;4.90;99.90;;;;;;4900837;29;20500;-72
2023/03/28 05:38:04;;;;;;;12.57;6.87;;;4.90;99.90;;;;;;4900879;29;20192;-72
2023/03/28 05:40:29;;;;;;;10.90;6.03;;;4.90;99.90;;;;;;4900753;29;20194;-71
2023/03/28 05:42:55;;;;;;;10.33;4.97;;;4.90;99.90;;;;;;4900811;29;20540;-72
2023/03/28 05:45:21;;;;;;;13.60;6.00;;;4.90;99.90;;;;;;4900841;29;20279;-72
2023/03/28 05:47:50;;;;;;;10.03;5.47;;;4.90;99.90;;;;;;4882897;29;20391;-72
2023/03/28 05:50:16;;;;;;;14.43;6.60;;;4.90;99.90;;;;;;4897480;29;20211;-72
2023/03/28 05:52:41;;;;;;;13.20;6.00;;;4.90;99.90;;;;;;4899432;29;20432;-69
2023/03/28 05:55:07;;;;;;;11.30;4.73;;;4.90;99.90;;;;;;4898213;29;20258;-72
2023/03/28 05:57:33;;;;;;;8.73;5.53;;;4.90;99.90;;;;;;4898467;29;20179;-72
2023/03/28 05:59:59;;;;;;;7.90;5.37;;;5.00;99.90;;;;;;4896903;29;20646;-73
2023/03/28 06:02:25;;;;;;;14.50;6.53;;;5.00;99.90;;;;;;4898348;29;20271;-74
2023/03/28 06:04:53;;;;;;;11.73;6.90;;;4.90;99.90;;;;;;4898155;29;20177;-76
2023/03/28 06:07:19;;;;;;;12.03;5.50;;;5.00;99.90;;;;;;4897718;29;20224;-71
2023/03/28 06:09:45;;;;;;;13.50;6.10;;;5.00;99.90;;;;;;4897430;29;20791;-73
2023/03/28 06:12:11;;;;;;;16.57;7.40;;;5.00;99.90;;;;;;4897448;29;20193;-73
2023/03/28 06:14:37;;;;;;;11.57;6.47;;;5.00;99.90;;;;;;4897858;29;20484;-74
2023/03/28 06:17:02;;;;;;;14.10;7.07;;;5.10;99.90;;;;;;4896869;29;20196;-72
2023/03/28 06:19:28;;;;;;;18.63;7.93;;;5.10;99.90;;;;;;4897527;29;20187;-73
2023/03/28 06:21:53;;;;;;;12.20;6.63;;;5.10;99.90;;;;;;4896765;29;20216;-73
2023/03/28 06:24:19;;;;;;;14.17;6.70;;;5.20;99.90;;;;;;4897905;29;20191;-74
2023/03/28 06:26:45;;;;;;;18.90;7.27;;;5.20;99.90;;;;;;4899052;29;20199;-74
2023/03/28 06:29:11;;;;;;;14.73;7.00;;;5.30;99.90;;;;;;4899318;29;20330;-76
2023/03/28 06:31:36;;;;;;;15.10;7.03;;;5.30;99.90;;;;;;4893101;29;20224;-82
2023/03/28 06:34:02;;;;;;;23.13;7.67;;;5.30;99.90;;;;;;4891598;29;20196;-82
2023/03/28 06:36:28;;;;;;;22.23;7.63;;;5.30;99.90;;;;;;4892479;29;20743;-83
2023/03/28 06:38:53;;;;;;;14.17;7.30;;;5.40;99.90;;;;;;4889543;29;20265;-73
2023/03/28 06:41:19;;;;;;;18.50;7.10;;;5.50;99.90;;;;;;4889802;29;20223;-78
2023/03/28 06:43:45;;;;;;;11.23;5.93;;;5.50;99.90;;;;;;4898605;29;20187;-72
2023/03/28 06:46:12;;;;;;;13.17;8.03;;;5.60;99.90;;;;;;4900415;29;20436;-72
2023/03/28 06:48:38;;;;;;;10.57;6.40;;;5.70;99.90;;;;;;4897779;29;20471;-71
2023/03/28 06:51:04;;;;;;;29.43;7.63;;;5.70;99.90;;;;;;4896775;29;20516;-68
2023/03/28 06:53:30;;;;;;;14.63;6.77;;;5.80;99.90;;;;;;4896412;29;20448;-69
2023/03/28 06:55:56;;;;;;;12.23;6.30;;;5.90;99.90;;;;;;4896540;29;20488;-67
2023/03/28 06:58:22;;;;;;;15.13;7.30;;;5.90;99.90;;;;;;4897152;29;20543;-69
2023/03/28 07:00:51;;;;;;;16.10;6.27;;;6.00;99.90;;;;;;4897044;29;20193;-69
2023/03/28 07:03:17;;;;;;;10.33;6.60;;;6.10;99.90;;;;;;4897024;29;20464;-68
2023/03/28 07:05:43;;;;;;;13.03;7.47;;;6.30;99.90;;;;;;4896866;29;20440;-70
2023/03/28 07:08:11;;;;;;;18.40;6.93;;;6.40;99.90;;;;;;4897133;29;20268;-69
2023/03/28 07:10:37;;;;;;;17.00;6.90;;;6.60;99.90;;;;;;4881813;29;20208;-70
2023/03/28 07:13:03;;;;;;;18.33;6.03;;;6.80;99.90;;;;;;4896561;29;20445;-69
2023/03/28 07:15:29;;;;;;;17.27;6.03;;;7.00;99.90;;;;;;4896481;29;20480;-69
2023/03/28 07:17:55;;;;;;;14.43;6.40;;;7.10;99.90;;;;;;4895496;29;20445;-70
2023/03/28 07:20:22;;;;;;;12.03;6.77;;;7.30;99.90;;;;;;4897007;29;20805;-69
2023/03/28 07:22:48;;;;;;;12.33;5.47;;;7.40;99.90;;;;;;4898216;29;20951;-69
2023/03/28 07:25:13;;;;;;;11.93;5.53;;;7.60;99.90;;;;;;4897288;29;20437;-69
2023/03/28 07:27:39;;;;;;;12.80;4.97;;;7.70;99.90;;;;;;4896805;29;20202;-69
2023/03/28 07:30:06;;;;;;;15.07;6.80;;;7.80;99.90;;;;;;4897461;29;20188;-68
2023/03/28 07:32:31;;;;;;;13.37;5.77;;;7.90;99.90;;;;;;4896425;29;20247;-69
2023/03/28 07:34:57;;;;;;;21.43;5.20;;;8.00;99.90;;;;;;4888269;29;20481;-69
2023/03/28 07:37:23;;;;;;;13.53;5.73;;;8.10;99.90;;;;;;4896140;29;20180;-69
2023/03/28 07:39:49;;;;;;;13.43;6.07;;;8.20;99.90;;;;;;4898586;29;20978;-69
2023/03/28 07:42:15;;;;;;;16.13;5.63;;;8.30;99.90;;;;;;4897091;29;20184;-69
2023/03/28 07:44:40;;;;;;;15.03;5.87;;;8.20;99.90;;;;;;4883302;29;20666;-68
2023/03/28 07:47:06;;;;;;;18.57;5.67;;;8.20;99.90;;;;;;4897072;29;20437;-67
2023/03/28 07:49:32;;;;;;;14.33;5.67;;;8.20;99.90;;;;;;4896786;29;20244;-68
2023/03/28 07:51:58;;;;;;;14.97;5.47;;;8.30;99.90;;;;;;4896501;29;21396;-66
2023/03/28 07:54:25;;;;;;;8.23;4.80;;;8.40;99.90;;;;;;4896856;29;20256;-67
2023/03/28 07:56:50;;;;;;;11.90;4.00;;;8.50;99.90;;;;;;4897096;29;20452;-67
2023/03/28 07:59:16;;;;;;;8.60;4.70;;;8.60;99.90;;;;;;4896531;29;20528;-67
2023/03/28 08:01:44;;;;;;;6.90;4.47;;;8.60;99.90;;;;;;4896584;29;20346;-67
2023/03/28 08:04:11;;;;;;;15.77;5.30;;;8.50;99.90;;;;;;4896489;29;20192;-67
2023/03/28 08:06:38;;;;;;;8.43;4.40;;;8.40;99.90;;;;;;4895494;29;20475;-69
2023/03/28 08:09:08;;;;;;;14.03;5.17;;;8.40;99.90;;;;;;4895569;29;20958;-68
2023/03/28 08:11:35;;;;;;;13.00;4.87;;;8.30;99.90;;;;;;4894949;29;20449;-69
2023/03/28 08:14:01;;;;;;;20.70;4.80;;;8.40;99.90;;;;;;4898772;29;20486;-68
2023/03/28 08:16:28;;;;;;;12.30;5.43;;;8.50;99.90;;;;;;4896266;29;20853;-68
2023/03/28 08:18:53;;;;;;;8.83;5.20;;;8.70;99.90;;;;;;4895779;29;20496;-67
2023/03/28 08:21:19;;;;;;;14.60;4.80;;;8.70;99.90;;;;;;4896447;29;20440;-67
2023/03/28 08:23:44;;;;;;;10.73;4.10;;;8.80;99.90;;;;;;4898818;29;20806;-67
2023/03/28 08:26:11;;;;;;;12.60;5.80;;;8.60;99.90;;;;;;4896838;29;20211;-68
2023/03/28 08:28:37;;;;;;;8.27;4.33;;;8.70;99.90;;;;;;4896913;29;20188;-68
2023/03/28 08:31:12;;;;;;;36.33;9.50;;;8.80;99.90;;;;;;4896105;29;20519;-67
2023/03/28 08:33:42;;;;;;;13.53;5.47;;;9.00;99.90;;;;;;4894427;29;20775;-69
2023/03/28 08:36:09;;;;;;;18.60;4.40;;;9.10;99.90;;;;;;4895689;29;20479;-71
2023/03/28 08:38:35;;;;;;;7.77;4.40;;;9.20;99.90;;;;;;4895663;29;20523;-71
2023/03/28 08:41:29;;;;;;;10.40;3.30;;;9.30;99.90;;;;;;4894169;29;20444;-71
2023/03/28 08:44:23;;;;;;;7.43;3.53;;;9.30;99.90;;;;;;4891876;29;20523;-68
2023/03/28 08:46:55;;;;;;;10.93;4.17;;;9.50;99.90;;;;;;4892719;29;20444;-71
2023/03/28 08:49:21;;;;;;;10.77;2.90;;;9.60;99.90;;;;;;4899192;29;20503;-73
2023/03/28 08:51:51;;;;;;;7.00;3.03;;;9.70;99.90;;;;;;4899460;29;22121;-72
2023/03/28 08:54:30;;;;;;;8.03;3.63;;;9.70;99.90;;;;;;4884063;29;20462;-70
2023/03/28 08:56:59;;;;;;;7.63;2.80;;;9.70;99.90;;;;;;4898874;29;20444;-71
2023/03/28 08:59:39;;;;;;;8.83;2.90;;;9.70;99.90;;;;;;4899291;29;20437;-72
2023/03/28 09:02:18;;;;;;;9.33;2.87;;;9.60;99.90;;;;;;4900272;29;20550;-72
2023/03/28 09:04:44;;;;;;;5.90;2.20;;;9.40;99.90;;;;;;4897156;29;20447;-68
2023/03/28 09:07:23;;;;;;;12.73;3.50;;;9.40;99.90;;;;;;4866945;29;20803;-68
2023/03/28 09:10:13;;;;;;;10.33;3.20;;;9.40;99.90;;;;;;4858791;29;20450;-68
2023/03/28 09:12:55;;;;;;;8.37;2.50;;;9.40;99.90;;;;;;4860316;29;20486;-67
2023/03/28 09:15:37;;;;;;;10.70;2.50;;;9.60;99.90;;;;;;4860384;29;20569;-68
2023/03/28 09:18:21;;;;;;;6.77;2.30;;;9.70;99.90;;;;;;4853546;29;20446;-69
2023/03/28 09:20:58;;;;;;;10.87;3.43;;;9.70;99.90;;;;;;4862297;29;20453;-70
